createdAt,value
2023-05-20T00:01:15.955Z,97846.28
2023-05-20T00:05:21.062Z,97850.88
2023-05-20T00:09:26.132Z,97852.72
2023-05-20T00:13:31.127Z,97845.63
2023-05-20T00:17:35.803Z,97847.28
2023-05-20T00:21:38.911Z,97858.13
2023-05-20T00:25:43.753Z,97849.72
2023-05-20T00:29:47.012Z,97844.50
2023-05-20T00:33:51.355Z,97842.66
2023-05-20T00:37:56.953Z,97845.94
2023-05-20T00:42:03.673Z,97842.66
2023-05-20T00:46:07.731Z,97825.97
2023-05-20T00:50:13.200Z,97837.59
2023-05-20T00:54:16.996Z,97834.97
2023-05-20T00:58:22.533Z,97826.31
2023-05-20T01:02:26.905Z,97829.00
2023-05-20T01:06:30.841Z,97820.34
2023-05-20T01:10:38.734Z,97814.91
2023-05-20T01:14:50.883Z,97812.91
2023-05-20T01:19:00.055Z,97804.44
2023-05-20T01:23:07.459Z,97814.56
2023-05-20T01:27:12.217Z,97807.69
2023-05-20T01:31:20.864Z,97809.31
2023-05-20T01:35:24.557Z,97806.06
2023-05-20T01:39:30.188Z,97810.28
2023-05-20T01:43:33.821Z,97810.28
2023-05-20T01:47:37.237Z,97806.41
2023-05-20T01:51:41.758Z,97820.16
2023-05-20T01:55:46.325Z,97821.31
2023-05-20T01:59:49.814Z,97823.16
2023-05-20T02:03:53.333Z,97822.50
2023-05-20T02:07:56.872Z,97827.13
2023-05-20T02:12:01.512Z,97825.47
2023-05-20T02:16:05.400Z,97822.84
2023-05-20T02:20:10.535Z,97824.22
2023-05-20T02:24:13.924Z,97829.44
2023-05-20T02:28:21.655Z,97833.69
2023-05-20T02:32:28.413Z,97832.06
2023-05-20T02:36:32.724Z,97829.97
2023-05-20T02:40:36.249Z,97829.38
2023-05-20T02:44:42.193Z,97836.41
2023-05-20T02:48:45.591Z,97830.50
2023-05-20T02:52:48.848Z,97833.88
2023-05-20T02:56:52.397Z,97838.81
2023-05-20T03:00:58.052Z,97829.03
2023-05-20T03:05:01.295Z,97832.81
2023-05-20T03:09:05.333Z,97846.44
2023-05-20T03:13:11.742Z,97844.34
2023-05-20T03:17:16.215Z,97853.19
2023-05-20T03:21:19.544Z,97848.78
2023-05-20T03:25:24.396Z,97843.38
2023-05-20T03:29:27.671Z,97841.53
2023-05-20T03:33:33.894Z,97839.22
2023-05-20T03:37:39.034Z,97835.78
2023-05-20T03:41:43.893Z,97833.97
2023-05-20T03:45:47.498Z,97828.44
2023-05-20T03:49:52.636Z,97827.53
2023-05-20T03:53:56.433Z,97833.81
2023-05-20T03:57:59.505Z,97831.59
2023-05-20T04:02:02.690Z,97840.63
2023-05-20T04:06:07.560Z,97837.19
2023-05-20T04:10:12.500Z,97835.09
2023-05-20T04:14:17.148Z,97829.75
2023-05-20T04:18:20.797Z,97836.09
2023-05-20T04:22:25.494Z,97827.41
2023-05-20T04:26:29.114Z,97843.44
2023-05-20T04:30:36.312Z,97841.38
2023-05-20T04:34:41.430Z,97848.47
2023-05-20T04:38:47.164Z,97850.00
2023-05-20T04:42:51.491Z,97858.72
2023-05-20T04:46:54.707Z,97854.03
2023-05-20T04:50:58.923Z,97858.66
2023-05-20T04:55:05.249Z,97842.41
2023-05-20T04:59:10.340Z,97847.72
2023-05-20T05:03:14.115Z,97842.78
2023-05-20T05:07:17.395Z,97850.09
2023-05-20T05:11:23.866Z,97853.63
2023-05-20T05:15:27.518Z,97848.09
2023-05-20T05:19:32.485Z,97840.22
2023-05-20T05:23:36.101Z,97850.88
2023-05-20T05:27:41.458Z,97846.63
2023-05-20T05:31:44.603Z,97844.09
2023-05-20T05:35:47.749Z,97845.81
2023-05-20T05:39:51.404Z,97847.88
2023-05-20T05:43:57.609Z,97851.38
2023-05-20T05:48:01.241Z,97846.13
2023-05-20T05:52:04.571Z,97840.38
2023-05-20T05:56:08.751Z,97841.91
2023-05-20T06:00:18.439Z,97842.81
2023-05-20T06:04:24.694Z,97847.78
2023-05-20T06:08:29.634Z,97845.81
2023-05-20T06:12:32.990Z,97853.53
2023-05-20T06:16:38.093Z,97852.38
2023-05-20T06:20:41.989Z,97843.38
2023-05-20T06:24:45.124Z,97854.13
2023-05-20T06:28:48.711Z,97842.84
2023-05-20T06:32:53.663Z,97841.69
2023-05-20T06:36:57.174Z,97845.88
2023-05-20T06:41:00.530Z,97837.97
2023-05-20T06:45:04.083Z,97842.47
2023-05-20T06:49:08.592Z,97847.41
2023-05-20T06:53:13.191Z,97830.91
2023-05-20T06:57:19.285Z,97825.94
2023-05-20T07:01:23.223Z,97823.06
2023-05-20T07:05:29.048Z,97826.03
2023-05-20T07:09:34.384Z,97813.75
2023-05-20T07:13:39.625Z,97820.06
2023-05-20T07:17:42.884Z,97814.63
2023-05-20T07:21:48.109Z,97820.09
2023-05-20T07:25:52.163Z,97818.66
2023-05-20T07:29:55.475Z,97812.72
2023-05-20T07:33:59.634Z,97792.34
2023-05-20T07:38:04.535Z,97789.38
2023-05-20T07:42:08.366Z,97789.03
2023-05-20T07:46:16.115Z,97794.47
2023-05-20T07:50:20.498Z,97786.44
2023-05-20T07:54:29.788Z,97779.81
2023-05-20T07:58:35.751Z,97771.44
2023-05-20T08:02:39.177Z,97772.31
2023-05-20T08:06:45.430Z,97771.56
2023-05-20T08:10:50.690Z,97772.22
2023-05-20T08:14:59.700Z,97764.00
2023-05-20T08:19:05.435Z,97757.63
2023-05-20T08:23:08.985Z,97757.94
2023-05-20T08:27:13.622Z,97746.44
2023-05-20T08:31:18.568Z,97749.22
2023-05-20T08:35:24.504Z,97748.53
2023-05-20T08:39:28.669Z,97739.22
2023-05-20T08:43:33.653Z,97722.63
2023-05-20T08:47:37.539Z,97726.56
2023-05-20T08:51:43.541Z,97709.19
2023-05-20T08:55:50.552Z,97707.13
2023-05-20T08:59:55.162Z,97712.34
2023-05-20T09:03:59.440Z,97706.38
2023-05-20T09:08:13.929Z,97716.19
2023-05-20T09:12:17.462Z,97717.34
2023-05-20T09:16:22.349Z,97713.47
2023-05-20T09:20:26.839Z,97707.09
2023-05-20T09:24:30.825Z,97699.28
2023-05-20T09:28:36.559Z,97695.16
2023-05-20T09:32:41.484Z,97705.38
2023-05-20T09:36:45.901Z,97708.31
2023-05-20T09:40:52.400Z,97704.28
2023-05-20T09:45:00.497Z,97695.19
2023-05-20T09:49:06.934Z,97691.41
2023-05-20T09:53:12.635Z,97700.22
2023-05-20T09:57:16.208Z,97690.81
2023-05-20T10:01:19.357Z,97692.38
2023-05-20T10:05:29.241Z,97685.91
2023-05-20T10:09:47.664Z,97684.00
2023-05-20T10:14:12.339Z,97692.31
2023-05-20T10:18:28.926Z,97683.84
2023-05-20T10:22:34.191Z,97682.31
2023-05-20T10:26:40.175Z,97684.97
2023-05-20T10:30:51.797Z,97680.16
2023-05-20T10:34:59.956Z,97688.09
2023-05-20T10:39:06.398Z,97681.09
2023-05-20T10:43:15.082Z,97685.06
2023-05-20T10:47:25.533Z,97663.38
2023-05-20T10:51:32.399Z,97674.09
2023-05-20T10:55:41.965Z,97677.91
2023-05-20T10:59:45.817Z,97667.72
2023-05-20T11:03:51.392Z,97672.28
2023-05-20T11:08:04.441Z,97661.91
2023-05-20T11:12:15.682Z,97659.50
2023-05-20T11:16:22.799Z,97668.84
2023-05-20T11:20:27.772Z,97651.16
2023-05-20T11:24:31.190Z,97650.84
2023-05-20T11:28:37.103Z,97653.09
2023-05-20T11:32:40.412Z,97655.16
2023-05-20T11:40:54.817Z,97662.09
2023-05-20T11:45:01.414Z,97650.88
2023-05-20T11:49:05.085Z,97636.28
2023-05-20T11:53:09.525Z,97643.88
2023-05-20T11:57:12.945Z,97635.38
2023-05-20T12:01:22.914Z,97638.91
2023-05-20T12:05:29.746Z,97637.31
2023-05-20T12:09:33.581Z,97629.28
2023-05-20T12:13:36.773Z,97624.72
2023-05-20T12:17:49.817Z,97627.16
2023-05-20T12:21:54.102Z,97627.19
2023-05-20T12:25:57.458Z,97624.25
2023-05-20T12:30:00.745Z,97628.53
2023-05-20T12:34:05.756Z,97633.06
2023-05-20T12:38:09.597Z,97621.31
2023-05-20T12:42:12.820Z,97623.44
2023-05-20T12:46:16.493Z,97608.91
2023-05-20T12:50:21.459Z,97612.13
2023-05-20T12:54:28.589Z,97605.63
2023-05-20T12:58:32.173Z,97617.47
2023-05-20T13:02:37.189Z,97597.94
2023-05-20T13:06:44.998Z,97602.75
2023-05-20T13:10:49.322Z,97586.44
2023-05-20T13:14:54.604Z,97602.50
2023-05-20T13:18:57.835Z,97593.16
2023-05-20T13:23:02.974Z,97593.75
2023-05-20T13:27:07.026Z,97585.97
2023-05-20T13:31:10.456Z,97584.91
2023-05-20T13:35:15.051Z,97582.16
2023-05-20T13:39:19.887Z,97576.25
2023-05-20T13:43:23.125Z,97577.50
2023-05-20T13:47:26.419Z,97569.41
2023-05-20T13:51:29.494Z,97557.59
2023-05-20T13:55:34.459Z,97559.47
2023-05-20T13:59:38.128Z,97548.72
2023-05-20T14:03:42.963Z,97557.44
2023-05-20T14:07:46.641Z,97543.50
2023-05-20T14:12:00.714Z,97547.97
2023-05-20T14:16:06.823Z,97555.91
2023-05-20T14:20:11.337Z,97553.19
2023-05-20T14:24:14.511Z,97552.56
2023-05-20T14:28:19.212Z,97565.59
2023-05-20T14:32:22.864Z,97551.84
2023-05-20T14:36:27.935Z,97559.84
2023-05-20T14:40:31.946Z,97560.84
2023-05-20T14:44:39.636Z,97554.94
2023-05-20T14:48:43.078Z,97547.75
2023-05-20T14:52:46.955Z,97548.56
2023-05-20T14:56:50.268Z,97544.84
2023-05-20T15:00:56.287Z,97559.28
2023-05-20T15:04:59.903Z,97544.63
2023-05-20T15:09:03.916Z,97538.78
2023-05-20T15:13:07.318Z,97537.50
2023-05-20T15:17:14.190Z,97536.41
2023-05-20T15:21:18.128Z,97534.00
2023-05-20T15:25:21.714Z,97537.44
2023-05-20T15:29:24.828Z,97530.44
2023-05-20T15:33:30.902Z,97531.50
2023-05-20T15:37:34.002Z,97530.94
2023-05-20T15:41:40.415Z,97522.69
2023-05-20T15:45:44.085Z,97531.19
2023-05-20T15:49:49.756Z,97528.44
2023-05-20T15:53:54.459Z,97528.16
2023-05-20T15:57:57.472Z,97514.78
2023-05-20T16:02:04.035Z,97516.09
2023-05-20T16:06:11.828Z,97503.53
2023-05-20T16:10:15.259Z,97501.63
2023-05-20T16:14:18.265Z,97509.34
2023-05-20T16:18:21.745Z,97506.31
2023-05-20T16:22:27.093Z,97508.97
2023-05-20T16:26:31.611Z,97513.69
2023-05-20T16:30:37.493Z,97502.97
2023-05-20T16:34:40.852Z,97516.25
2023-05-20T16:38:45.639Z,97512.78
2023-05-20T16:42:51.122Z,97501.00
2023-05-20T16:46:54.593Z,97509.28
2023-05-20T16:50:57.820Z,97509.53
2023-05-20T16:55:04.823Z,97513.59
2023-05-20T16:59:08.210Z,97516.50
2023-05-20T17:03:12.183Z,97516.78
2023-05-20T17:07:15.558Z,97524.84
2023-05-20T17:11:23.453Z,97519.81
2023-05-20T17:15:26.824Z,97530.47
2023-05-20T17:19:30.550Z,97526.44
2023-05-20T17:23:33.689Z,97533.59
2023-05-20T17:27:40.832Z,97538.31
2023-05-20T17:31:45.238Z,97547.22
2023-05-20T17:35:49.433Z,97543.56
2023-05-20T17:39:56.632Z,97557.47
2023-05-20T17:44:02.313Z,97545.81
2023-05-20T17:48:08.846Z,97560.22
2023-05-20T17:52:14.923Z,97551.94
2023-05-20T17:56:19.349Z,97564.97
2023-05-20T18:00:24.205Z,97562.31
2023-05-20T18:04:28.369Z,97566.56
2023-05-20T18:08:35.181Z,97567.34
2023-05-20T18:12:38.487Z,97569.50
2023-05-20T18:16:42.928Z,97573.22
2023-05-20T18:20:47.010Z,97580.88
2023-05-20T18:24:50.344Z,97576.66
2023-05-20T18:28:53.407Z,97589.88
2023-05-20T18:32:59.125Z,97590.13
2023-05-20T18:37:04.590Z,97586.03
2023-05-20T18:41:08.049Z,97588.94
2023-05-20T18:45:13.035Z,97603.00
2023-05-20T18:49:20.649Z,97596.09
2023-05-20T18:53:24.462Z,97605.63
2023-05-20T18:57:28.624Z,97616.00
2023-05-20T19:01:34.021Z,97610.09
2023-05-20T19:05:39.462Z,97617.56
2023-05-20T19:09:43.641Z,97621.78
2023-05-20T19:13:46.958Z,97629.22
2023-05-20T19:17:50.372Z,97631.16
2023-05-20T19:21:56.729Z,97634.69
2023-05-20T19:25:59.799Z,97643.41
2023-05-20T19:30:03.775Z,97632.53
2023-05-20T19:34:09.151Z,97643.38
2023-05-20T19:38:14.003Z,97639.44
2023-05-20T19:42:17.824Z,97645.22
2023-05-20T19:46:23.531Z,97641.03
2023-05-20T19:50:26.760Z,97653.53
2023-05-20T19:54:31.701Z,97654.44
2023-05-20T19:58:37.597Z,97657.94
2023-05-20T20:02:42.144Z,97661.44
2023-05-20T20:06:45.732Z,97663.72
2023-05-20T20:10:51.147Z,97666.00
2023-05-20T20:14:56.641Z,97671.13
2023-05-20T20:19:02.393Z,97691.50
2023-05-20T20:23:05.947Z,97691.97
2023-05-20T20:27:10.853Z,97692.38
2023-05-20T20:31:16.615Z,97690.88
2023-05-20T20:35:22.767Z,97682.91
2023-05-20T20:39:26.111Z,97676.34
2023-05-20T20:43:37.433Z,97674.28
2023-05-20T20:47:41.166Z,97653.81
2023-05-20T20:51:44.392Z,97657.09
2023-05-20T20:55:47.737Z,97659.78
2023-05-20T20:59:58.029Z,97663.28
2023-05-20T21:04:01.394Z,97661.72
2023-05-20T21:08:05.377Z,97678.44
2023-05-20T21:12:09.718Z,97690.91
2023-05-20T21:16:15.066Z,97683.00
2023-05-20T21:20:21.257Z,97679.44
2023-05-20T21:24:25.075Z,97691.06
2023-05-20T21:28:28.233Z,97684.22
2023-05-20T21:32:34.174Z,97686.69
2023-05-20T21:36:37.597Z,97680.19
2023-05-20T21:40:41.333Z,97684.88
2023-05-20T21:44:47.931Z,97690.16
2023-05-20T21:48:52.273Z,97688.34
2023-05-20T21:52:59.200Z,97698.69
2023-05-20T21:57:05.289Z,97688.94
2023-05-20T22:01:10.484Z,97675.94
2023-05-20T22:05:15.794Z,97669.63
2023-05-20T22:09:19.454Z,97669.63
2023-05-20T22:13:26.653Z,97677.19
2023-05-20T22:17:31.467Z,97665.22
2023-05-20T22:21:46.380Z,97674.56
2023-05-20T22:25:52.581Z,97670.94
2023-05-20T22:29:55.968Z,97667.69
2023-05-20T22:34:05.312Z,97653.16
2023-05-20T22:38:10.249Z,97659.69
2023-05-20T22:42:13.376Z,97662.53
2023-05-20T22:46:16.737Z,97654.47
2023-05-20T22:50:20.114Z,97656.50
2023-05-20T22:54:25.138Z,97646.13
2023-05-20T22:58:30.084Z,97650.00
2023-05-20T23:02:33.222Z,97646.19
2023-05-20T23:06:39.435Z,97642.75
2023-05-20T23:15:05.179Z,97631.84
2023-05-20T23:19:08.907Z,97636.72
2023-05-20T23:23:15.170Z,97632.66
2023-05-20T23:27:19.995Z,97632.25
2023-05-20T23:31:24.201Z,97642.44
2023-05-20T23:35:27.129Z,97631.66
2023-05-20T23:39:30.582Z,97627.84
2023-05-20T23:43:35.353Z,97621.78
2023-05-20T23:47:39.019Z,97608.56
2023-05-20T23:51:42.849Z,97619.72
2023-05-20T23:55:49.849Z,97615.69
2023-05-20T23:59:55.690Z,97612.84
